METAR Data
IDs: Format: Raw Decoded Include TAF

Data at: 1708 UTC 03 Jul 2020

METAR for:KLCK (Rickenbacker AFB, OH, US)
Text:KLCK 031655Z AUTO 33008KT SCT070 31/15 A3002 RMK AO2 T03080152
Temperature: 30.8°C ( 87°F)
Dewpoint: 15.2°C ( 59°F) [RH = 39%]
Pressure (altimeter):30.02 inches Hg (1016.7 mb)
Winds:from the NNW (330 degrees) at 9 MPH (8 knots; 4.1 m/s)
Ceiling:at least 12,000 feet AGL
Clouds: scattered clouds at 7000 feet AGL
QC Flag:automated observation with no human augmentation